createdAt,value
2019-04-16T00:02:41.743Z,34.94
2019-04-16T00:05:19.730Z,34.95
2019-04-16T00:07:59.046Z,34.96
2019-04-16T00:10:35.975Z,34.98
2019-04-16T00:13:13.522Z,35.00
2019-04-16T00:15:45.894Z,35.04
2019-04-16T00:18:18.721Z,35.04
2019-04-16T00:21:09.895Z,35.06
2019-04-16T00:24:11.179Z,35.09
2019-04-16T00:26:42.747Z,35.14
2019-04-16T00:29:13.103Z,35.17
2019-04-16T00:31:45.465Z,35.23
2019-04-16T00:34:17.165Z,35.26
2019-04-16T00:36:48.675Z,35.25
2019-04-16T00:39:25.621Z,35.25
2019-04-16T00:41:56.146Z,35.25
2019-04-16T00:44:26.446Z,35.27
2019-04-16T00:46:57.249Z,35.26
2019-04-16T00:49:37.756Z,35.26
2019-04-16T00:52:08.377Z,35.27
2019-04-16T00:54:42.494Z,35.29
2019-04-16T00:57:11.318Z,35.31
2019-04-16T00:59:41.697Z,35.31
2019-04-16T01:02:12.112Z,35.34
2019-04-16T01:04:43.529Z,35.35
2019-04-16T01:07:13.876Z,35.38
2019-04-16T01:09:44.559Z,35.38
2019-04-16T01:12:17.457Z,35.42
2019-04-16T01:14:47.801Z,35.42
2019-04-16T01:17:18.166Z,35.45
2019-04-16T01:19:51.084Z,35.48
2019-04-16T01:22:21.622Z,35.48
2019-04-16T01:24:52.670Z,35.52
2019-04-16T01:27:32.548Z,35.54
2019-04-16T01:30:05.990Z,35.61
2019-04-16T01:32:54.909Z,35.63
2019-04-16T01:35:51.502Z,35.62
2019-04-16T01:38:35.536Z,35.62
2019-04-16T01:41:08.432Z,35.63
2019-04-16T01:43:38.773Z,35.63
2019-04-16T01:46:09.574Z,35.64
2019-04-16T01:48:39.917Z,35.66
2019-04-16T01:51:14.972Z,35.68
2019-04-16T01:53:43.832Z,35.70
2019-04-16T01:56:14.144Z,35.73
2019-04-16T01:58:45.300Z,35.75
2019-04-16T02:01:16.214Z,35.77
2019-04-16T02:03:48.877Z,35.83
2019-04-16T02:06:25.836Z,35.83
2019-04-16T02:09:01.731Z,35.87
2019-04-16T02:11:29.795Z,35.86
2019-04-16T02:14:00.747Z,35.86
2019-04-16T02:16:31.089Z,35.87
2019-04-16T02:19:02.449Z,35.89
2019-04-16T02:21:33.015Z,35.94
2019-04-16T02:24:03.381Z,35.98
2019-04-16T02:26:33.721Z,35.96
2019-04-16T02:29:04.353Z,35.97
2019-04-16T02:31:35.028Z,35.95
2019-04-16T02:34:05.392Z,35.97
2019-04-16T02:36:35.750Z,35.96
2019-04-16T02:39:08.611Z,35.99
2019-04-16T02:41:39.155Z,36.00
2019-04-16T02:44:14.161Z,36.00
2019-04-16T02:46:41.856Z,36.00
2019-04-16T02:49:12.478Z,36.00
2019-04-16T02:52:06.244Z,36.00
2019-04-16T02:54:44.586Z,36.01
2019-04-16T02:57:28.093Z,36.04
2019-04-16T03:00:05.709Z,36.04
2019-04-16T03:02:53.874Z,36.07
2019-04-16T03:05:29.038Z,36.06
2019-04-16T03:08:05.020Z,36.08
2019-04-16T03:10:34.774Z,36.10
2019-04-16T03:13:05.209Z,36.13
2019-04-16T03:16:06.263Z,36.14
2019-04-16T03:18:52.097Z,36.16
2019-04-16T03:21:27.430Z,36.20
2019-04-16T03:23:57.903Z,36.29
2019-04-16T03:26:28.231Z,36.35
2019-04-16T03:28:59.521Z,36.38
2019-04-16T03:31:29.909Z,36.39
2019-04-16T03:34:00.298Z,36.40
2019-04-16T03:36:32.566Z,36.42
2019-04-16T03:39:12.286Z,36.42
2019-04-16T03:41:41.513Z,36.43
2019-04-16T03:44:18.651Z,36.45
2019-04-16T03:46:49.045Z,36.48
2019-04-16T03:49:19.385Z,36.48
2019-04-16T03:51:49.791Z,36.54
2019-04-16T03:54:22.474Z,36.55
2019-04-16T03:56:52.265Z,36.58
2019-04-16T03:59:27.705Z,36.61
2019-04-16T04:01:58.483Z,36.77
2019-04-16T04:04:29.922Z,36.87
2019-04-16T04:07:00.530Z,36.94
2019-04-16T04:09:33.869Z,36.98
2019-04-16T04:12:04.302Z,37.03
2019-04-16T04:14:34.731Z,37.08
2019-04-16T04:17:07.061Z,37.12
2019-04-16T04:19:37.740Z,37.19
2019-04-16T04:22:09.718Z,37.24
2019-04-16T04:24:40.092Z,37.31
2019-04-16T04:27:14.394Z,37.37
2019-04-16T04:29:42.478Z,37.46
2019-04-16T04:32:13.012Z,37.49
2019-04-16T04:34:45.507Z,37.55
2019-04-16T04:37:15.710Z,37.60
2019-04-16T04:39:46.020Z,37.67
2019-04-16T04:42:19.375Z,37.76
2019-04-16T04:44:49.123Z,37.80
2019-04-16T04:47:20.227Z,37.85
2019-04-16T04:49:50.744Z,37.92
2019-04-16T04:52:21.319Z,38.17
2019-04-16T04:54:54.105Z,38.17
2019-04-16T04:57:24.075Z,38.19
2019-04-16T04:59:54.746Z,38.19
2019-04-16T05:02:25.094Z,38.50
2019-04-16T05:05:02.164Z,38.24
2019-04-16T05:07:32.690Z,38.37
2019-04-16T05:10:04.654Z,38.37
2019-04-16T05:12:34.988Z,38.47
2019-04-16T05:15:06.518Z,38.47
2019-04-16T05:17:38.474Z,38.53
2019-04-16T05:20:08.910Z,38.59
2019-04-16T05:22:39.293Z,38.68
2019-04-16T05:25:09.941Z,38.77
2019-04-16T05:27:41.599Z,38.86
2019-04-16T05:30:12.428Z,38.98
2019-04-16T05:32:44.032Z,39.13
2019-04-16T05:35:14.727Z,39.30
2019-04-16T05:37:45.316Z,39.46
2019-04-16T05:40:17.780Z,39.79
2019-04-16T05:42:48.181Z,39.92
2019-04-16T05:45:18.784Z,40.07
2019-04-16T05:47:50.644Z,40.09
2019-04-16T05:50:20.984Z,40.23
2019-04-16T05:52:51.289Z,40.57
2019-04-16T05:55:50.543Z,40.88
2019-04-16T05:58:21.953Z,41.14
2019-04-16T06:01:13.787Z,41.37
2019-04-16T06:03:45.950Z,41.55
2019-04-16T06:06:17.614Z,41.67
2019-04-16T06:08:48.019Z,41.80
2019-04-16T06:11:28.348Z,41.95
2019-04-16T06:14:05.442Z,41.99
2019-04-16T06:16:56.759Z,42.13
2019-04-16T06:19:46.738Z,42.25
2019-04-16T06:22:36.294Z,42.31
2019-04-16T06:25:24.560Z,42.37
2019-04-16T06:28:22.877Z,42.40
2019-04-16T06:31:18.216Z,42.46
2019-04-16T06:34:10.549Z,42.51
2019-04-16T06:37:12.020Z,42.61
2019-04-16T06:40:00.893Z,42.63
2019-04-16T06:42:41.316Z,42.64
2019-04-16T06:45:29.765Z,42.70
2019-04-16T06:48:12.809Z,42.73
2019-04-16T06:50:48.614Z,42.75
2019-04-16T06:53:25.225Z,42.71
2019-04-16T06:56:20.882Z,42.76
2019-04-16T06:59:05.381Z,42.88
2019-04-16T07:02:07.606Z,42.93
2019-04-16T07:05:01.213Z,42.89
2019-04-16T07:07:48.019Z,42.93
2019-04-16T07:10:20.428Z,43.02
2019-04-16T07:12:51.238Z,43.14
2019-04-16T07:15:23.765Z,43.29
2019-04-16T07:17:56.814Z,43.30
2019-04-16T07:20:27.951Z,43.37
2019-04-16T07:22:58.315Z,43.49
2019-04-16T07:25:29.738Z,43.49
2019-04-16T07:28:08.228Z,43.51
2019-04-16T07:30:49.459Z,43.57
2019-04-16T07:33:26.595Z,43.52
2019-04-16T07:36:11.271Z,43.63
2019-04-16T07:38:59.456Z,43.60
2019-04-16T07:42:07.850Z,43.59
2019-04-16T07:45:11.459Z,43.60
2019-04-16T07:48:51.432Z,43.68
2019-04-16T07:51:42.765Z,43.65
2019-04-16T07:54:29.299Z,43.76
2019-04-16T07:57:00.000Z,43.82
2019-04-16T07:59:32.370Z,43.90
2019-04-16T08:02:03.495Z,43.87
2019-04-16T08:04:36.658Z,43.90
2019-04-16T08:07:08.399Z,43.90
2019-04-16T08:09:38.747Z,43.74
2019-04-16T08:12:22.063Z,43.65
2019-04-16T08:14:41.047Z,43.66
2019-04-16T08:17:11.356Z,43.70
2019-04-16T08:19:44.685Z,43.80
2019-04-16T08:22:15.842Z,43.84
2019-04-16T08:24:50.200Z,43.87
2019-04-16T08:27:22.156Z,43.92
2019-04-16T08:29:53.144Z,43.97
2019-04-16T08:32:25.748Z,43.86
2019-04-16T08:34:58.362Z,43.90
2019-04-16T08:37:30.646Z,43.92
2019-04-16T08:40:00.951Z,43.97
2019-04-16T08:42:44.149Z,44.03
2019-04-16T08:45:09.332Z,44.02
2019-04-16T08:47:44.538Z,44.07
2019-04-16T08:50:14.868Z,44.10
2019-04-16T08:52:45.549Z,44.14
2019-04-16T08:55:15.877Z,44.22
2019-04-16T08:57:47.095Z,44.14
2019-04-16T09:00:18.378Z,44.24
2019-04-16T09:02:48.672Z,44.16
2019-04-16T09:05:19.372Z,44.02
2019-04-16T09:07:51.054Z,44.01
2019-04-16T09:10:24.041Z,43.95
2019-04-16T09:13:04.316Z,44.06
2019-04-16T09:15:32.743Z,43.99
2019-04-16T09:18:15.861Z,43.96
2019-04-16T09:20:46.691Z,44.04
2019-04-16T09:23:17.264Z,43.98
2019-04-16T09:26:22.599Z,43.96
2019-04-16T09:29:09.952Z,43.88
2019-04-16T09:32:00.118Z,43.88
2019-04-16T09:34:49.572Z,43.77
2019-04-16T09:37:49.151Z,43.62
2019-04-16T09:40:49.374Z,43.54
2019-04-16T09:43:24.932Z,43.51
2019-04-16T09:46:09.674Z,43.55
2019-04-16T09:48:34.246Z,43.47
2019-04-16T09:51:03.436Z,43.42
2019-04-16T09:53:37.481Z,43.38
2019-04-16T09:56:34.930Z,43.37
2019-04-16T09:59:27.750Z,43.34
2019-04-16T10:02:08.244Z,43.25
2019-04-16T10:04:40.140Z,43.19
2019-04-16T10:07:12.701Z,43.16
2019-04-16T10:09:51.422Z,43.12
2019-04-16T10:12:25.072Z,43.04
2019-04-16T10:14:56.715Z,43.00
2019-04-16T10:17:27.476Z,42.87
2019-04-16T10:19:57.867Z,42.88
2019-04-16T10:22:28.545Z,42.89
2019-04-16T10:25:06.378Z,42.85
2019-04-16T10:27:41.345Z,42.77
2019-04-16T10:30:34.123Z,42.79
2019-04-16T10:33:04.594Z,42.80
2019-04-16T10:35:34.930Z,42.63
2019-04-16T10:38:22.801Z,42.55
2019-04-16T10:40:59.537Z,42.51
2019-04-16T10:43:47.870Z,42.42
2019-04-16T10:46:34.077Z,42.31
2019-04-16T10:49:10.052Z,42.20
2019-04-16T10:51:48.894Z,42.26
2019-04-16T10:54:38.265Z,42.15
2019-04-16T10:57:42.984Z,42.25
2019-04-16T11:00:45.043Z,42.11
2019-04-16T11:03:21.235Z,42.04
2019-04-16T11:06:01.077Z,42.02
2019-04-16T11:08:32.859Z,41.94
2019-04-16T11:11:13.593Z,41.80
2019-04-16T11:13:58.912Z,41.69
2019-04-16T11:16:20.012Z,41.59
2019-04-16T11:18:50.452Z,41.48
2019-04-16T11:21:22.124Z,41.43
2019-04-16T11:23:53.211Z,41.37
2019-04-16T11:26:24.583Z,41.24
2019-04-16T11:28:56.348Z,41.12
2019-04-16T11:31:27.051Z,41.12
2019-04-16T11:33:57.505Z,40.92
2019-04-16T11:36:30.996Z,40.78
2019-04-16T11:39:02.633Z,40.71
2019-04-16T11:44:54.953Z,40.60
2019-04-16T11:47:27.925Z,40.59
2019-04-16T11:49:57.184Z,40.55
2019-04-16T11:52:29.408Z,40.48
2019-04-16T11:55:00.863Z,40.46
2019-04-16T11:57:35.045Z,40.27
2019-04-16T12:00:09.237Z,40.25
2019-04-16T12:03:01.915Z,40.17
2019-04-16T12:05:51.832Z,40.09
2019-04-16T12:08:35.237Z,40.02
2019-04-16T12:11:19.774Z,39.99
2019-04-16T12:13:56.767Z,39.90
2019-04-16T12:16:35.694Z,39.71
2019-04-16T12:19:24.212Z,39.64
2019-04-16T12:22:18.261Z,39.66
2019-04-16T12:25:06.483Z,39.45
2019-04-16T12:27:54.691Z,39.41
2019-04-16T12:30:35.068Z,39.36
2019-04-16T12:33:15.688Z,39.28
2019-04-16T12:35:53.510Z,39.19
2019-04-16T12:38:29.066Z,38.97
2019-04-16T12:41:33.419Z,38.90
2019-04-16T12:44:44.531Z,38.75
2019-04-16T12:47:14.770Z,38.84
2019-04-16T12:50:16.492Z,38.76
2019-04-16T12:52:55.952Z,38.67
2019-04-16T12:55:47.924Z,38.59
2019-04-16T12:58:55.317Z,38.52
2019-04-16T13:01:36.516Z,38.43
2019-04-16T13:04:12.005Z,38.35
2019-04-16T13:07:13.778Z,38.29
2019-04-16T13:10:06.119Z,38.26
2019-04-16T13:13:05.133Z,38.16
2019-04-16T13:16:01.195Z,38.06
2019-04-16T13:19:03.962Z,38.12
2019-04-16T13:21:42.759Z,38.03
2019-04-16T13:24:23.217Z,37.95
2019-04-16T13:27:21.818Z,37.97
2019-04-16T13:29:52.280Z,37.93
2019-04-16T13:32:23.165Z,37.79
2019-04-16T13:34:57.912Z,37.69
2019-04-16T13:37:33.749Z,37.64
2019-04-16T13:40:05.016Z,37.49
2019-04-16T13:42:37.110Z,37.43
2019-04-16T13:45:28.890Z,37.37
2019-04-16T13:48:14.478Z,37.31
2019-04-16T13:51:01.783Z,37.22
2019-04-16T13:53:38.772Z,37.08
2019-04-16T13:56:30.918Z,37.10
2019-04-16T13:59:23.542Z,37.09
2019-04-16T14:02:06.708Z,37.07
2019-04-16T14:04:42.577Z,36.97
2019-04-16T14:07:12.518Z,36.85
2019-04-16T14:09:44.366Z,36.76
2019-04-16T14:12:17.107Z,36.71
2019-04-16T14:14:49.491Z,36.68
2019-04-16T14:17:25.307Z,36.61
2019-04-16T14:19:55.933Z,36.56
2019-04-16T14:22:26.289Z,36.56
2019-04-16T14:24:56.729Z,36.48
2019-04-16T14:27:27.078Z,36.46
2019-04-16T14:29:59.634Z,36.37
2019-04-16T14:32:30.255Z,36.28
2019-04-16T14:35:03.324Z,36.15
2019-04-16T14:37:33.945Z,36.09
2019-04-16T14:40:22.452Z,36.01
2019-04-16T14:42:57.352Z,36.01
2019-04-16T14:45:53.511Z,35.92
2019-04-16T14:48:10.202Z,35.77
2019-04-16T14:50:40.596Z,35.77
2019-04-16T14:53:15.542Z,35.76
2019-04-16T14:55:59.721Z,35.76
2019-04-16T14:58:57.863Z,35.71
2019-04-16T15:01:56.046Z,35.66
2019-04-16T15:04:36.884Z,35.62
2019-04-16T15:07:29.189Z,35.61
2019-04-16T15:10:33.553Z,35.59
2019-04-16T15:13:17.534Z,35.44
2019-04-16T15:16:14.114Z,35.31
2019-04-16T15:18:59.699Z,35.31
2019-04-16T15:21:51.932Z,35.22
2019-04-16T15:24:47.116Z,35.21
2019-04-16T15:27:44.694Z,35.08
2019-04-16T15:30:36.697Z,35.04
2019-04-16T15:33:41.134Z,35.03
2019-04-16T15:36:18.456Z,34.84
2019-04-16T15:39:17.517Z,34.79
2019-04-16T15:42:07.078Z,34.76
2019-04-16T15:45:03.529Z,34.73
2019-04-16T15:47:49.851Z,34.68
2019-04-16T15:50:25.942Z,34.63
2019-04-16T15:53:15.356Z,34.55
2019-04-16T15:55:58.083Z,34.50
2019-04-16T15:58:48.715Z,34.43
2019-04-16T16:01:25.963Z,34.40
2019-04-16T16:04:13.924Z,34.38
2019-04-16T16:07:09.610Z,34.33
2019-04-16T16:09:59.048Z,34.28
2019-04-16T16:12:32.590Z,34.21
2019-04-16T16:15:07.597Z,34.17
2019-04-16T16:17:38.228Z,34.12
2019-04-16T16:20:12.416Z,34.06
2019-04-16T16:22:42.749Z,33.96
2019-04-16T16:25:13.339Z,33.92
2019-04-16T16:27:46.960Z,33.86
2019-04-16T16:30:15.786Z,33.81
2019-04-16T16:32:46.132Z,33.78
2019-04-16T16:35:17.805Z,33.74
2019-04-16T16:37:48.703Z,33.67
2019-04-16T16:40:19.056Z,33.62
2019-04-16T16:42:49.353Z,33.60
2019-04-16T16:45:23.445Z,33.57
2019-04-16T16:47:54.342Z,33.52
2019-04-16T16:50:24.723Z,33.52
2019-04-16T16:53:15.114Z,33.48
2019-04-16T16:55:51.176Z,33.48
2019-04-16T16:58:39.367Z,33.44
2019-04-16T17:01:27.441Z,33.41
2019-04-16T17:04:12.022Z,33.39
2019-04-16T17:06:42.378Z,33.38
2019-04-16T17:09:22.137Z,33.34
2019-04-16T17:11:55.744Z,33.32
2019-04-16T17:14:25.565Z,33.27
2019-04-16T17:17:12.440Z,33.25
2019-04-16T17:19:30.249Z,33.23
2019-04-16T17:22:01.256Z,33.21
2019-04-16T17:24:31.596Z,33.18
2019-04-16T17:27:02.057Z,33.18
2019-04-16T17:29:32.398Z,33.16
2019-04-16T17:32:04.328Z,33.12
2019-04-16T17:34:38.841Z,33.08
2019-04-16T17:37:06.685Z,33.05
2019-04-16T17:39:46.483Z,33.04
2019-04-16T17:42:21.180Z,33.00
2019-04-16T17:45:25.762Z,32.98
2019-04-16T17:48:06.129Z,32.95
2019-04-16T17:50:58.613Z,32.93
2019-04-16T17:54:02.577Z,32.91
2019-04-16T17:57:09.070Z,32.87
2019-04-16T18:00:05.879Z,32.86
2019-04-16T18:03:04.722Z,32.80
2019-04-16T18:05:49.672Z,32.77
2019-04-16T18:08:37.935Z,32.75
2019-04-16T18:11:11.153Z,32.70
2019-04-16T18:14:11.547Z,32.68
2019-04-16T18:16:54.231Z,32.62
2019-04-16T18:19:52.172Z,32.60
2019-04-16T18:22:31.172Z,32.60
2019-04-16T18:25:08.794Z,32.58
2019-04-16T18:27:58.092Z,32.55
2019-04-16T18:30:40.581Z,32.55
2019-04-16T18:33:30.204Z,32.55
2019-04-16T18:36:16.968Z,32.53
2019-04-16T18:39:24.502Z,32.50
2019-04-16T18:41:59.738Z,32.46
2019-04-16T18:44:47.754Z,32.47
2019-04-16T18:48:03.131Z,32.45
2019-04-16T18:50:28.440Z,32.44
2019-04-16T18:52:59.689Z,32.42
2019-04-16T18:55:30.008Z,32.41
2019-04-16T18:58:00.785Z,32.39
2019-04-16T19:00:48.705Z,32.37
2019-04-16T19:03:20.969Z,32.35
2019-04-16T19:05:51.288Z,32.33
2019-04-16T19:08:22.293Z,32.29
2019-04-16T19:10:52.879Z,32.26
2019-04-16T19:13:23.133Z,32.24
2019-04-16T19:15:54.203Z,32.25
2019-04-16T19:18:24.634Z,32.23
2019-04-16T19:20:55.213Z,32.24
2019-04-16T19:23:26.225Z,32.20
2019-04-16T19:25:56.859Z,32.21
2019-04-16T19:28:28.362Z,32.18
2019-04-16T19:30:59.231Z,32.18
2019-04-16T19:33:33.395Z,32.19
2019-04-16T19:36:04.003Z,32.18
2019-04-16T19:38:39.358Z,32.15
2019-04-16T19:41:07.940Z,32.13
2019-04-16T19:43:38.555Z,32.12
2019-04-16T19:46:15.231Z,32.13
2019-04-16T19:48:41.828Z,32.11
2019-04-16T19:51:14.453Z,32.09
2019-04-16T19:53:47.655Z,32.07
2019-04-16T19:56:18.650Z,32.07
2019-04-16T19:58:49.616Z,32.06
2019-04-16T20:01:21.382Z,32.05
2019-04-16T20:03:51.869Z,32.03
2019-04-16T20:06:25.245Z,32.04
2019-04-16T20:08:55.952Z,32.04
2019-04-16T20:11:26.249Z,32.01
2019-04-16T20:14:01.477Z,32.00
2019-04-16T20:16:29.573Z,31.99
2019-04-16T20:19:00.349Z,31.97
2019-04-16T20:21:44.360Z,31.98
2019-04-16T20:24:22.324Z,31.97
2019-04-16T20:26:53.030Z,31.95
2019-04-16T20:29:23.647Z,31.93
2019-04-16T20:31:54.293Z,31.93
2019-04-16T20:34:25.848Z,31.95
2019-04-16T20:36:57.225Z,31.96
2019-04-16T20:39:32.348Z,31.99
2019-04-16T20:42:12.230Z,31.99
2019-04-16T20:44:42.917Z,32.01
2019-04-16T20:47:13.822Z,31.99
2019-04-16T20:49:46.042Z,31.96
2019-04-16T20:52:16.955Z,31.94
2019-04-16T20:54:51.181Z,31.97
2019-04-16T20:57:25.343Z,31.95
2019-04-16T20:59:54.005Z,31.95
2019-04-16T21:02:24.967Z,31.96
2019-04-16T21:04:58.188Z,31.99
2019-04-16T21:07:28.017Z,31.97
2019-04-16T21:10:17.164Z,32.04
2019-04-16T21:12:47.544Z,32.04
2019-04-16T21:15:19.501Z,32.03
2019-04-16T21:17:50.956Z,32.04
2019-04-16T21:20:23.494Z,32.05
2019-04-16T21:22:57.605Z,32.02
2019-04-16T21:25:27.062Z,32.02
2019-04-16T21:28:13.087Z,32.03
2019-04-16T21:30:44.348Z,32.05
2019-04-16T21:33:39.986Z,32.05
2019-04-16T21:36:12.661Z,31.82
2019-04-16T21:39:18.136Z,32.03
2019-04-16T21:41:50.491Z,32.00
2019-04-16T21:44:21.136Z,31.99
2019-04-16T21:46:52.348Z,32.02
2019-04-16T21:49:37.804Z,32.02
2019-04-16T21:52:08.454Z,32.02
2019-04-16T21:54:39.772Z,32.11
2019-04-16T21:57:13.505Z,32.11
2019-04-16T21:59:43.472Z,32.07
2019-04-16T22:02:37.868Z,32.07
2019-04-16T22:05:09.665Z,32.06
2019-04-16T22:07:40.376Z,32.07
2019-04-16T22:10:10.791Z,32.07
2019-04-16T22:12:41.368Z,32.05
2019-04-16T22:15:11.735Z,32.05
2019-04-16T22:17:42.134Z,32.05
2019-04-16T22:20:12.446Z,32.03
2019-04-16T22:22:43.685Z,32.03
2019-04-16T22:25:16.459Z,32.11
2019-04-16T22:27:47.050Z,32.11
2019-04-16T22:30:19.520Z,32.10
2019-04-16T22:32:50.167Z,32.10
2019-04-16T22:35:20.774Z,32.07
2019-04-16T22:37:52.615Z,32.11
2019-04-16T22:40:45.242Z,32.11
2019-04-16T22:43:49.753Z,32.10
2019-04-16T22:46:25.511Z,32.11
2019-04-16T22:48:57.444Z,32.17
2019-04-16T22:51:29.432Z,32.16
2019-04-16T22:53:59.712Z,32.19
2019-04-16T22:56:52.327Z,32.20
2019-04-16T22:59:23.898Z,32.21
2019-04-16T23:01:54.537Z,32.21
2019-04-16T23:04:25.854Z,32.21
2019-04-16T23:06:56.925Z,32.22
2019-04-16T23:09:31.599Z,32.26
2019-04-16T23:12:02.867Z,32.28
2019-04-16T23:14:34.893Z,32.31
2019-04-16T23:17:06.030Z,32.33
2019-04-16T23:19:36.717Z,32.34
2019-04-16T23:22:07.057Z,32.37
2019-04-16T23:24:37.485Z,32.39
2019-04-16T23:27:09.658Z,32.41
2019-04-16T23:29:40.054Z,32.44
2019-04-16T23:32:14.299Z,32.44
2019-04-16T23:34:46.865Z,32.42
2019-04-16T23:37:23.002Z,32.42
2019-04-16T23:39:51.560Z,32.41
2019-04-16T23:42:22.450Z,32.39
2019-04-16T23:45:14.828Z,32.40
2019-04-16T23:47:59.492Z,32.42
2019-04-16T23:50:49.479Z,32.42
2019-04-16T23:53:24.964Z,32.48
2019-04-16T23:56:17.876Z,32.49
2019-04-16T23:59:01.370Z,32.52
